James Turecamo — WDC7565 — position and weather

sailwx.info

Track history (hours):
 
Tides and Currents Weather Stations Pressure Air Temp Water Temp Dewpoint Dewpoint Depression Visibility Wind Speed Wind Dir Waves Ship Positions

James Turecamo

Owner: Moran Towing Corporation, New Canaan, CT. More information available from US FCC via Universal Licensing System and Coast Guard Vessel Documentation Center.

Last reported at 2016-Aug-26 02:33 UTC. Time now 2016-Aug-26 08:33 UTC.
Position N 40°39' W 074°05'.

Length 27 m; draft 4.5 m.

Type: Tug. MMSI: 367073380.

Date/timePositionNaut miles runAvg speedWind from/ knotsBaromVisibWave heightAir tempDewpointWater temp
2016-Aug-26 02:33N 40°39' W 074°05'9 2.1
2016-Aug-25 22:09N 40°47' W 073°59'711.4
2016-Aug-25 21:33N 40°41' W 074°02'5 2.3
2016-Aug-25 19:33N 40°39' W 074°07'3 3.3
2016-Aug-25 18:33N 40°39' W 074°03'4 2.6
2016-Aug-25 17:10N 40°38' W 074°08'2 0.8
2016-Aug-25 14:33N 40°41' W 074°08'7 1.2
2016-Aug-25 09:11N 40°47' W 074°05'3 2.4
2016-Aug-25 08:06N 40°44' W 074°05'1 1.2
2016-Aug-25 07:33N 40°44' W 074°06'4 1.2
2016-Aug-25 04:25N 40°41' W 074°09'3 0.6
2016-Aug-24 23:16N 40°38' W 074°08'0 0.0
2016-Aug-24 22:16N 40°38' W 074°08'0 0.0
2016-Aug-24 21:10N 40°38' W 074°08'0 0.0
2016-Aug-24 20:26N 40°38' W 074°08'0 0.0
2016-Aug-24 19:33N 40°38' W 074°08'0 0.0
2016-Aug-24 18:31N 40°38' W 074°08'0 0.0
2016-Aug-24 17:33N 40°38' W 074°08'0 0.0
2016-Aug-24 16:33N 40°38' W 074°08'0 0.0
2016-Aug-24 15:33N 40°38' W 074°08'0 0.0
2016-Aug-24 14:33N 40°38' W 074°08'2 1.9
2016-Aug-24 13:33N 40°39' W 074°10'1 0.1
2016-Aug-23 23:08N 40°39' W 074°11'3 1.5
2016-Aug-23 21:17N 40°38' W 074°08'0 0.0
2016-Aug-23 17:30N 40°38' W 074°08'3 0.7
2016-Aug-23 13:06N 40°38' W 074°12'3 5.5
2016-Aug-23 12:33N 40°38' W 074°08'0 0.0
2016-Aug-23 11:33N 40°38' W 074°08'3 3.3
2016-Aug-23 10:33N 40°38' W 074°03'2 1.7
2016-Aug-23 09:33N 40°39' W 074°06'0 0.1
2016-Aug-23 08:33N 40°39' W 074°06'2 0.3
2016-Aug-23 02:12N 40°38' W 074°08'0 0.0
2016-Aug-23 01:33N 40°38' W 074°08'0 0.0
2016-Aug-23 00:33N 40°38' W 074°08'2 2.3
2016-Aug-22 23:33N 40°39' W 074°11'1 0.2
2016-Aug-22 14:31N 40°38' W 074°12'3 3.5
2016-Aug-22 13:33N 40°38' W 074°08'0 0.0
2016-Aug-22 12:07N 40°38' W 074°08'0 0.0
2016-Aug-22 11:32N 40°38' W 074°08'0 0.0
2016-Aug-22 10:33N 40°38' W 074°08'0 0.0
2016-Aug-22 09:33N 40°38' W 074°08'0 0.0
2016-Aug-22 08:32N 40°38' W 074°08'0 0.0
2016-Aug-22 07:33N 40°38' W 074°08'0 0.0
2016-Aug-22 06:31N 40°38' W 074°08'0 0.0
2016-Aug-22 05:33N 40°38' W 074°08'0 0.0
2016-Aug-22 04:32N 40°38' W 074°08'0 0.0
2016-Aug-22 03:21N 40°38' W 074°08'0 0.0
2016-Aug-22 02:25N 40°38' W 074°08'0 0.0
2016-Aug-22 01:33N 40°38' W 074°08'0 0.0
2016-Aug-22 00:33N 40°38' W 074°08'0 0.0
2016-Aug-21 23:33N 40°38' W 074°08'0 0.0
2016-Aug-21 22:33N 40°38' W 074°08'0 0.0
2016-Aug-21 18:33N 40°38' W 074°08'0 0.0
2016-Aug-21 17:33N 40°38' W 074°08'0 0.0
2016-Aug-21 16:32N 40°38' W 074°08'0 0.0
2016-Aug-21 15:33N 40°38' W 074°08'0 0.0
2016-Aug-21 14:33N 40°38' W 074°08'0 0.0
2016-Aug-21 13:28N 40°38' W 074°08'0 0.0
2016-Aug-21 11:30N 40°38' W 074°08'1 0.4
2016-Aug-21 09:29N 40°39' W 074°07'0 0.0
2016-Aug-21 08:32N 40°39' W 074°07'1 0.8
2016-Aug-21 07:33N 40°39' W 074°06'1 0.3
2016-Aug-21 03:28N 40°39' W 074°08'3 3.0
2016-Aug-21 02:33N 40°39' W 074°04'3 1.3
2016-Aug-21 00:25N 40°38' W 074°08'0 0.0
2016-Aug-20 08:33N 40°38' W 074°08'0 0.0
2016-Aug-20 07:33N 40°38' W 074°08'0 0.0
2016-Aug-20 06:22N 40°38' W 074°08'0 0.0
2016-Aug-20 05:33N 40°38' W 074°08'0 0.0
2016-Aug-20 04:33N 40°38' W 074°08'0 0.0
2016-Aug-20 03:33N 40°38' W 074°08'3 1.4
2016-Aug-20 01:33N 40°38' W 074°12'3 2.9
2016-Aug-20 00:33N 40°38' W 074°08'0 0.0
2016-Aug-19 23:32N 40°38' W 074°08'0 0.0
2016-Aug-19 22:33N 40°38' W 074°08'0 0.0
2016-Aug-19 21:14N 40°38' W 074°08'0 0.0
2016-Aug-19 20:32N 40°38' W 074°08'0 0.0
2016-Aug-19 18:30N 40°38' W 074°08'0 0.0
2016-Aug-19 17:33N 40°38' W 074°08'0 0.0
2016-Aug-19 16:03N 40°38' W 074°08'0 0.0
2016-Aug-19 12:11N 40°38' W 074°08'0 0.0
2016-Aug-19 11:33N 40°38' W 074°08'0 0.0
2016-Aug-19 10:33N 40°38' W 074°08'2 1.6
2016-Aug-19 09:32N 40°39' W 074°10'1 1.2
2016-Aug-19 08:33N 40°39' W 074°11'3 2.4
2016-Aug-19 07:25N 40°38' W 074°08'0 0.0
2016-Aug-19 05:33N 40°38' W 074°08'0 0.0
2016-Aug-19 04:33N 40°38' W 074°08'0 0.0
2016-Aug-19 03:33N 40°38' W 074°08'0 0.0
2016-Aug-19 02:33N 40°38' W 074°08'0 0.0
2016-Aug-19 01:33N 40°38' W 074°08'0 0.0
2016-Aug-19 00:33N 40°38' W 074°08'3 0.3
2016-Aug-18 14:17N 40°38' W 074°12'1 1.1
2016-Aug-18 13:28N 40°38' W 074°12'1 1.6
2016-Aug-18 12:33N 40°39' W 074°10'5 4.6
2016-Aug-18 11:34N 40°39' W 074°04'2 0.3
2016-Aug-18 05:33N 40°39' W 074°07'1 1.0
2016-Aug-18 04:33N 40°38' W 074°08'0 0.0
2016-Aug-18 03:33N 40°38' W 074°08'0 0.0
2016-Aug-18 02:12N 40°38' W 074°08'1 1.0
2016-Aug-18 01:33N 40°38' W 074°09'2 0.2
2016-Aug-17 17:29N 40°39' W 074°11'3 1.2
2016-Aug-17 15:19N 40°38' W 074°08'0 0.0
2016-Aug-17 14:04N 40°38' W 074°08'0 0.0
2016-Aug-17 12:31N 40°38' W 074°08'0 0.0
2016-Aug-17 10:04N 40°38' W 074°08'3 3.6
2016-Aug-17 09:14N 40°38' W 074°12'3 0.5
2016-Aug-17 03:14N 40°38' W 074°08'0 0.0
2016-Aug-16 22:33N 40°38' W 074°08'0 0.0
2016-Aug-16 21:24N 40°38' W 074°08'0 0.0
2016-Aug-16 20:21N 40°38' W 074°08'0 0.0
2016-Aug-16 19:33N 40°38' W 074°08'3 0.7
2016-Aug-16 15:04N 40°38' W 074°12'2 4.7
2016-Aug-16 14:33N 40°39' W 074°09'2 2.1
2016-Aug-16 13:28N 40°42' W 074°08'3 2.9
2016-Aug-16 12:32N 40°39' W 074°09'1 0.5
2016-Aug-16 10:13N 40°38' W 074°08'0 0.0
2016-Aug-16 09:31N 40°38' W 074°08'0 0.0
2016-Aug-16 08:31N 40°38' W 074°08'0 0.0
2016-Aug-16 07:25N 40°38' W 074°08'2 0.8
2016-Aug-16 04:33N 40°41' W 074°08'  
Track history (hours):
 
Tides and Currents Weather Stations Pressure Air Temp Water Temp Dewpoint Dewpoint Depression Visibility Wind Speed Wind Dir Waves Ship Positions

James Turecamo

Owner: Moran Towing Corporation, New Canaan, CT. More information available from US FCC via Universal Licensing System and Coast Guard Vessel Documentation Center.

Last reported at 2016-Aug-26 02:33 UTC. Time now 2016-Aug-26 08:33 UTC.
Position N 40°39' W 074°05'.

Length 27 m; draft 4.5 m.

Type: Tug. MMSI: 367073380.

Date/timePositionNaut miles runAvg speedWind from/ knotsBaromVisibWave heightAir tempDewpointWater temp
2016-Aug-26 02:33N 40°39' W 074°05'9 2.1
2016-Aug-25 22:09N 40°47' W 073°59'711.4
2016-Aug-25 21:33N 40°41' W 074°02'5 2.3
2016-Aug-25 19:33N 40°39' W 074°07'3 3.3
2016-Aug-25 18:33N 40°39' W 074°03'4 2.6
2016-Aug-25 17:10N 40°38' W 074°08'2 0.8
2016-Aug-25 14:33N 40°41' W 074°08'7 1.2
2016-Aug-25 09:11N 40°47' W 074°05'3 2.4
2016-Aug-25 08:06N 40°44' W 074°05'1 1.2
2016-Aug-25 07:33N 40°44' W 074°06'4 1.2
2016-Aug-25 04:25N 40°41' W 074°09'3 0.6
2016-Aug-24 23:16N 40°38' W 074°08'0 0.0
2016-Aug-24 22:16N 40°38' W 074°08'0 0.0
2016-Aug-24 21:10N 40°38' W 074°08'0 0.0
2016-Aug-24 20:26N 40°38' W 074°08'0 0.0
2016-Aug-24 19:33N 40°38' W 074°08'0 0.0
2016-Aug-24 18:31N 40°38' W 074°08'0 0.0
2016-Aug-24 17:33N 40°38' W 074°08'0 0.0
2016-Aug-24 16:33N 40°38' W 074°08'0 0.0
2016-Aug-24 15:33N 40°38' W 074°08'0 0.0
2016-Aug-24 14:33N 40°38' W 074°08'2 1.9
2016-Aug-24 13:33N 40°39' W 074°10'1 0.1
2016-Aug-23 23:08N 40°39' W 074°11'3 1.5
2016-Aug-23 21:17N 40°38' W 074°08'0 0.0
2016-Aug-23 17:30N 40°38' W 074°08'3 0.7
2016-Aug-23 13:06N 40°38' W 074°12'3 5.5
2016-Aug-23 12:33N 40°38' W 074°08'0 0.0
2016-Aug-23 11:33N 40°38' W 074°08'3 3.3
2016-Aug-23 10:33N 40°38' W 074°03'2 1.7
2016-Aug-23 09:33N 40°39' W 074°06'0 0.1
2016-Aug-23 08:33N 40°39' W 074°06'2 0.3
2016-Aug-23 02:12N 40°38' W 074°08'0 0.0
2016-Aug-23 01:33N 40°38' W 074°08'0 0.0
2016-Aug-23 00:33N 40°38' W 074°08'2 2.3
2016-Aug-22 23:33N 40°39' W 074°11'1 0.2
2016-Aug-22 14:31N 40°38' W 074°12'3 3.5
2016-Aug-22 13:33N 40°38' W 074°08'0 0.0
2016-Aug-22 12:07N 40°38' W 074°08'0 0.0
2016-Aug-22 11:32N 40°38' W 074°08'0 0.0
2016-Aug-22 10:33N 40°38' W 074°08'0 0.0
2016-Aug-22 09:33N 40°38' W 074°08'0 0.0
2016-Aug-22 08:32N 40°38' W 074°08'0 0.0
2016-Aug-22 07:33N 40°38' W 074°08'0 0.0
2016-Aug-22 06:31N 40°38' W 074°08'0 0.0
2016-Aug-22 05:33N 40°38' W 074°08'0 0.0
2016-Aug-22 04:32N 40°38' W 074°08'0 0.0
2016-Aug-22 03:21N 40°38' W 074°08'0 0.0
2016-Aug-22 02:25N 40°38' W 074°08'0 0.0
2016-Aug-22 01:33N 40°38' W 074°08'0 0.0
2016-Aug-22 00:33N 40°38' W 074°08'0 0.0
2016-Aug-21 23:33N 40°38' W 074°08'0 0.0
2016-Aug-21 22:33N 40°38' W 074°08'0 0.0
2016-Aug-21 18:33N 40°38' W 074°08'0 0.0
2016-Aug-21 17:33N 40°38' W 074°08'0 0.0
2016-Aug-21 16:32N 40°38' W 074°08'0 0.0
2016-Aug-21 15:33N 40°38' W 074°08'0 0.0
2016-Aug-21 14:33N 40°38' W 074°08'0 0.0
2016-Aug-21 13:28N 40°38' W 074°08'0 0.0
2016-Aug-21 11:30N 40°38' W 074°08'1 0.4
2016-Aug-21 09:29N 40°39' W 074°07'0 0.0
2016-Aug-21 08:32N 40°39' W 074°07'1 0.8
2016-Aug-21 07:33N 40°39' W 074°06'1 0.3
2016-Aug-21 03:28N 40°39' W 074°08'3 3.0
2016-Aug-21 02:33N 40°39' W 074°04'3 1.3
2016-Aug-21 00:25N 40°38' W 074°08'0 0.0
2016-Aug-20 08:33N 40°38' W 074°08'0 0.0
2016-Aug-20 07:33N 40°38' W 074°08'0 0.0
2016-Aug-20 06:22N 40°38' W 074°08'0 0.0
2016-Aug-20 05:33N 40°38' W 074°08'0 0.0
2016-Aug-20 04:33N 40°38' W 074°08'0 0.0
2016-Aug-20 03:33N 40°38' W 074°08'3 1.4
2016-Aug-20 01:33N 40°38' W 074°12'3 2.9
2016-Aug-20 00:33N 40°38' W 074°08'0 0.0
2016-Aug-19 23:32N 40°38' W 074°08'0 0.0
2016-Aug-19 22:33N 40°38' W 074°08'0 0.0
2016-Aug-19 21:14N 40°38' W 074°08'0 0.0
2016-Aug-19 20:32N 40°38' W 074°08'0 0.0
2016-Aug-19 18:30N 40°38' W 074°08'0 0.0
2016-Aug-19 17:33N 40°38' W 074°08'0 0.0
2016-Aug-19 16:03N 40°38' W 074°08'0 0.0
2016-Aug-19 12:11N 40°38' W 074°08'0 0.0
2016-Aug-19 11:33N 40°38' W 074°08'0 0.0
2016-Aug-19 10:33N 40°38' W 074°08'2 1.6
2016-Aug-19 09:32N 40°39' W 074°10'1 1.2
2016-Aug-19 08:33N 40°39' W 074°11'3 2.4
2016-Aug-19 07:25N 40°38' W 074°08'0 0.0
2016-Aug-19 05:33N 40°38' W 074°08'0 0.0
2016-Aug-19 04:33N 40°38' W 074°08'0 0.0
2016-Aug-19 03:33N 40°38' W 074°08'0 0.0
2016-Aug-19 02:33N 40°38' W 074°08'0 0.0
2016-Aug-19 01:33N 40°38' W 074°08'0 0.0
2016-Aug-19 00:33N 40°38' W 074°08'3 0.3
2016-Aug-18 14:17N 40°38' W 074°12'1 1.1
2016-Aug-18 13:28N 40°38' W 074°12'1 1.6
2016-Aug-18 12:33N 40°39' W 074°10'5 4.6
2016-Aug-18 11:34N 40°39' W 074°04'2 0.3
2016-Aug-18 05:33N 40°39' W 074°07'1 1.0
2016-Aug-18 04:33N 40°38' W 074°08'0 0.0
2016-Aug-18 03:33N 40°38' W 074°08'0 0.0
2016-Aug-18 02:12N 40°38' W 074°08'1 1.0
2016-Aug-18 01:33N 40°38' W 074°09'2 0.2
2016-Aug-17 17:29N 40°39' W 074°11'3 1.2
2016-Aug-17 15:19N 40°38' W 074°08'0 0.0
2016-Aug-17 14:04N 40°38' W 074°08'0 0.0
2016-Aug-17 12:31N 40°38' W 074°08'0 0.0
2016-Aug-17 10:04N 40°38' W 074°08'3 3.6
2016-Aug-17 09:14N 40°38' W 074°12'3 0.5
2016-Aug-17 03:14N 40°38' W 074°08'0 0.0
2016-Aug-16 22:33N 40°38' W 074°08'0 0.0
2016-Aug-16 21:24N 40°38' W 074°08'0 0.0
2016-Aug-16 20:21N 40°38' W 074°08'0 0.0
2016-Aug-16 19:33N 40°38' W 074°08'3 0.7
2016-Aug-16 15:04N 40°38' W 074°12'2 4.7
2016-Aug-16 14:33N 40°39' W 074°09'2 2.1
2016-Aug-16 13:28N 40°42' W 074°08'3 2.9
2016-Aug-16 12:32N 40°39' W 074°09'1 0.5
2016-Aug-16 10:13N 40°38' W 074°08'0 0.0
2016-Aug-16 09:31N 40°38' W 074°08'0 0.0
2016-Aug-16 08:31N 40°38' W 074°08'0 0.0
2016-Aug-16 07:25N 40°38' W 074°08'2 0.8
2016-Aug-16 04:33N 40°41' W 074°08'  

Dump ship's entire track history